Terminal Aerodrome Forecast
Issued by NWS

Home | Current Version | Previous Version | Text Only | Print | Product List | Glossary On
Versions: 1 2 3 4 5 6 7 8 9 10 11 12 13 14 15 16 17 18 19 20 21 22 23 24 25 26 27
000
FTUS41 KBUF 210300 AAA
TAFJHW
TAF AMD
KJHW 210304Z 2103/2124 18005KT P6SM SCT002 BKN200
      TEMPO 2103/2107 2SM BR
     FM210700 20005KT 1/2SM FG BKN002
     FM211200 22006KT P6SM VCSH BKN015
     FM211700 26010KT P6SM VCSH BKN040
      AMD LTD TO CLD VIS AND WIND=

USA.gov is the U.S. government's official web portal to all federal, state and local government web resources and services.